PWSweather.com
Personal Weather Stations
Station Observations
KWIPARKF
Flambeau River State Forest, Park Falls, WI 54552

Flambeau River State ForestPark Falls, WI 54552

Lat: 45.81943, Lon: -90.61676

Elevation: 1476

Station Type: Davis Vantage Pro2 Plus

www.flambeauforestweather.com

High Low Average
Temperature 55.0°F12.8°C 50.7°F10.4°C 52.5°F11.4°C
Dew Point 52.9°F11.6°C 46.7°F8.2°C 50.3°F10.2°C
Winds 5.8 mph 9.3 kmh Calm Calm 2.0 mph SSE3.2 kmh SSE
Wind Gusts 13.8 mph22.2 kmh -- 6.0 mph9.7 kmh
Humidity 97% 86% 92%
Pressure 30.25 in1024.4 mb 30.00 in1015.9 mb -
Precipitation 0.01 in0.3 mm - -
Hour Temp Dew Point Humidity Winds Wind Gusts Pressure Precip Precip Rate Daily Precip Total
12:00 AM 49.9°F9.9°C 46.2°F7.9°C 87% Calm Calm -- 30.24 in1024.0 mb - 0.00 in0.0 mm 0.00 in0.0 mm
12:10 AM 50.1°F10.1°C 46.4°F8.0°C 87% Calm Calm -- 30.24 in1024.0 mb - 0.00 in0.0 mm 0.00 in0.0 mm
12:20 AM 50.2°F10.1°C 46.2°F7.9°C 86% Calm Calm 3.5 mph5.6 kmh 30.24 in1024.0 mb - 0.00 in0.0 mm 0.00 in0.0 mm
12:30 AM 50.3°F10.2°C 46.3°F7.9°C 86% Calm Calm -- 30.24 in1024.0 mb - 0.00 in0.0 mm 0.00 in0.0 mm
12:40 AM 50.5°F10.3°C 46.8°F8.2°C 87% Calm Calm -- 30.24 in1024.0 mb - 0.00 in0.0 mm 0.00 in0.0 mm
12:50 AM 50.6°F10.3°C 46.6°F8.1°C 86% 2.3 mph SE3.7 kmh SE 3.5 mph5.6 kmh 30.24 in1024.0 mb - 0.00 in0.0 mm 0.00 in0.0 mm
01:00 AM 50.7°F10.4°C 46.7°F8.2°C 86% 2.3 mph S3.7 kmh S 6.9 mph11.1 kmh 30.24 in1024.0 mb - 0.00 in0.0 mm 0.00 in0.0 mm
01:10 AM 50.8°F10.4°C 47.1°F8.4°C 87% 2.3 mph S3.7 kmh S 5.8 mph9.3 kmh 30.24 in1024.0 mb - 0.00 in0.0 mm 0.00 in0.0 mm
01:20 AM 51.0°F10.6°C 47.0°F8.3°C 86% 3.5 mph SSW5.6 kmh SSW 5.8 mph9.3 kmh 30.24 in1024.0 mb - 0.00 in0.0 mm 0.00 in0.0 mm
01:30 AM 51.1°F10.6°C 47.1°F8.4°C 86% 2.3 mph S3.7 kmh S 4.6 mph7.4 kmh 30.24 in1024.0 mb - 0.00 in0.0 mm 0.00 in0.0 mm
01:40 AM 51.1°F10.6°C 47.1°F8.4°C 86% 1.2 mph SSE1.9 kmh SSE 3.5 mph5.6 kmh 30.24 in1024.0 mb - 0.00 in0.0 mm 0.00 in0.0 mm
01:50 AM 51.2°F10.7°C 47.2°F8.4°C 86% Calm Calm -- 30.24 in1024.0 mb - 0.00 in0.0 mm 0.00 in0.0 mm
02:00 AM 51.2°F10.7°C 47.2°F8.4°C 86% 2.3 mph SE3.7 kmh SE 6.9 mph11.1 kmh 30.25 in1024.4 mb - 0.00 in0.0 mm 0.00 in0.0 mm
02:10 AM 51.2°F10.7°C 47.5°F8.6°C 87% Calm Calm 1.2 mph1.9 kmh 30.25 in1024.4 mb - 0.00 in0.0 mm 0.00 in0.0 mm
02:20 AM 51.1°F10.6°C 47.4°F8.6°C 87% 1.2 mph SE1.9 kmh SE 4.6 mph7.4 kmh 30.24 in1024.0 mb - 0.00 in0.0 mm 0.00 in0.0 mm
02:30 AM 51.1°F10.6°C 47.4°F8.6°C 87% 1.2 mph S1.9 kmh S 5.8 mph9.3 kmh 30.24 in1024.0 mb - 0.00 in0.0 mm 0.00 in0.0 mm
02:40 AM 51.1°F10.6°C 47.3°F8.5°C 87% Calm Calm 1.2 mph1.9 kmh 30.24 in1024.0 mb - 0.00 in0.0 mm 0.00 in0.0 mm
02:50 AM 51.0°F10.6°C 47.3°F8.5°C 87% 1.2 mph SSE1.9 kmh SSE 1.2 mph1.9 kmh 30.24 in1024.0 mb - 0.00 in0.0 mm 0.00 in0.0 mm
03:00 AM 51.0°F10.6°C 47.3°F8.5°C 87% Calm Calm 3.5 mph5.6 kmh 30.24 in1024.0 mb - 0.00 in0.0 mm 0.00 in0.0 mm
03:10 AM 51.0°F10.6°C 47.6°F8.7°C 88% 2.3 mph S3.7 kmh S 8.1 mph13.0 kmh 30.24 in1024.0 mb - 0.00 in0.0 mm 0.00 in0.0 mm
03:20 AM 51.0°F10.6°C 47.6°F8.7°C 88% 2.3 mph SE3.7 kmh SE 4.6 mph7.4 kmh 30.23 in1023.7 mb - 0.00 in0.0 mm 0.00 in0.0 mm
03:30 AM 51.1°F10.6°C 47.7°F8.7°C 88% 4.6 mph SSE7.4 kmh SSE 8.1 mph13.0 kmh 30.24 in1024.0 mb - 0.00 in0.0 mm 0.00 in0.0 mm
03:40 AM 51.1°F10.6°C 47.7°F8.7°C 88% 4.6 mph SE7.4 kmh SE 8.1 mph13.0 kmh 30.24 in1024.0 mb - 0.00 in0.0 mm 0.00 in0.0 mm
03:50 AM 51.2°F10.7°C 48.1°F8.9°C 89% 3.5 mph SE5.6 kmh SE 3.5 mph5.6 kmh 30.24 in1024.0 mb - 0.00 in0.0 mm 0.00 in0.0 mm
04:00 AM 51.2°F10.7°C 48.1°F8.9°C 89% 2.3 mph SE3.7 kmh SE 13.8 mph22.2 kmh 30.23 in1023.7 mb - 0.00 in0.0 mm 0.00 in0.0 mm
04:10 AM 51.3°F10.7°C 48.2°F9.0°C 89% 3.5 mph S5.6 kmh S 8.1 mph13.0 kmh 30.23 in1023.7 mb - 0.00 in0.0 mm 0.00 in0.0 mm
04:20 AM 51.3°F10.7°C 48.2°F9.0°C 89% 1.2 mph SSE1.9 kmh SSE 4.6 mph7.4 kmh 30.23 in1023.7 mb - 0.00 in0.0 mm 0.00 in0.0 mm
04:30 AM 51.3°F10.7°C 48.2°F9.0°C 89% 2.3 mph S3.7 kmh S 9.2 mph14.8 kmh 30.22 in1023.4 mb - 0.00 in0.0 mm 0.00 in0.0 mm
04:40 AM 51.3°F10.7°C 48.2°F9.0°C 89% 3.5 mph SE5.6 kmh SE 6.9 mph11.1 kmh 30.22 in1023.4 mb - 0.00 in0.0 mm 0.00 in0.0 mm
04:50 AM 51.4°F10.8°C 48.6°F9.2°C 90% 2.3 mph SSE3.7 kmh SSE 6.9 mph11.1 kmh 30.22 in1023.4 mb - 0.00 in0.0 mm 0.00 in0.0 mm
05:00 AM 51.4°F10.8°C 48.6°F9.2°C 90% 3.5 mph S5.6 kmh S 10.4 mph16.7 kmh 30.22 in1023.4 mb - 0.00 in0.0 mm 0.00 in0.0 mm
05:10 AM 51.4°F10.8°C 48.6°F9.2°C 90% 5.8 mph SE9.3 kmh SE 10.4 mph16.7 kmh 30.22 in1023.4 mb - 0.00 in0.0 mm 0.00 in0.0 mm
05:20 AM 51.5°F10.8°C 48.7°F9.3°C 90% 3.5 mph SSE5.6 kmh SSE 10.4 mph16.7 kmh 30.22 in1023.4 mb - 0.00 in0.0 mm 0.00 in0.0 mm
05:30 AM 51.5°F10.8°C 48.7°F9.3°C 90% 1.2 mph SSW1.9 kmh SSW 2.3 mph3.7 kmh 30.22 in1023.4 mb - 0.00 in0.0 mm 0.00 in0.0 mm
05:40 AM 51.5°F10.8°C 48.7°F9.3°C 90% Calm Calm 1.2 mph1.9 kmh 30.22 in1023.4 mb - 0.00 in0.0 mm 0.00 in0.0 mm
05:50 AM 51.6°F10.9°C 48.8°F9.3°C 90% 4.6 mph SSE7.4 kmh SSE 6.9 mph11.1 kmh 30.22 in1023.4 mb - 0.00 in0.0 mm 0.00 in0.0 mm
06:00 AM 51.6°F10.9°C 48.8°F9.3°C 90% Calm Calm -- 30.22 in1023.4 mb - 0.00 in0.0 mm 0.00 in0.0 mm
06:10 AM 51.5°F10.8°C 48.7°F9.3°C 90% 4.6 mph SSE7.4 kmh SSE 6.9 mph11.1 kmh 30.21 in1023.0 mb - 0.00 in0.0 mm 0.00 in0.0 mm
06:20 AM 51.5°F10.8°C 48.7°F9.3°C 90% 3.5 mph SE5.6 kmh SE 10.4 mph16.7 kmh 30.21 in1023.0 mb - 0.00 in0.0 mm 0.00 in0.0 mm
06:30 AM 51.6°F10.9°C 48.8°F9.3°C 90% 3.5 mph SSE5.6 kmh SSE 4.6 mph7.4 kmh 30.21 in1023.0 mb - 0.00 in0.0 mm 0.00 in0.0 mm
06:40 AM 51.6°F10.9°C 48.8°F9.3°C 90% 2.3 mph S3.7 kmh S 6.9 mph11.1 kmh 30.21 in1023.0 mb - 0.00 in0.0 mm 0.00 in0.0 mm
06:50 AM 51.6°F10.9°C 49.1°F9.5°C 91% Calm Calm 3.5 mph5.6 kmh 30.21 in1023.0 mb - 0.00 in0.0 mm 0.00 in0.0 mm
07:00 AM 51.6°F10.9°C 49.1°F9.5°C 91% Calm Calm -- 30.20 in1022.7 mb - 0.00 in0.0 mm 0.00 in0.0 mm
07:10 AM 51.6°F10.9°C 49.1°F9.5°C 91% 1.2 mph ESE1.9 kmh ESE 4.6 mph7.4 kmh 30.20 in1022.7 mb - 0.00 in0.0 mm 0.00 in0.0 mm
07:20 AM 51.6°F10.9°C 49.1°F9.5°C 91% 1.2 mph SE1.9 kmh SE 4.6 mph7.4 kmh 30.20 in1022.7 mb - 0.00 in0.0 mm 0.00 in0.0 mm
07:30 AM 51.5°F10.8°C 49.0°F9.4°C 91% 1.2 mph SSE1.9 kmh SSE 3.5 mph5.6 kmh 30.20 in1022.7 mb - 0.00 in0.0 mm 0.00 in0.0 mm
07:40 AM 51.4°F10.8°C 48.9°F9.4°C 91% Calm Calm 4.6 mph7.4 kmh 30.19 in1022.4 mb - 0.00 in0.0 mm 0.00 in0.0 mm
07:50 AM 51.3°F10.7°C 48.8°F9.3°C 91% 1.2 mph SSE1.9 kmh SSE 4.6 mph7.4 kmh 30.19 in1022.4 mb - 0.00 in0.0 mm 0.00 in0.0 mm
08:00 AM 51.2°F10.7°C 49.0°F9.4°C 92% 2.3 mph S3.7 kmh S 4.6 mph7.4 kmh 30.19 in1022.4 mb - 0.00 in0.0 mm 0.00 in0.0 mm
08:10 AM 51.2°F10.7°C 49.0°F9.4°C 92% 2.3 mph S3.7 kmh S 3.5 mph5.6 kmh 30.19 in1022.4 mb - 0.00 in0.0 mm 0.00 in0.0 mm
08:20 AM 51.2°F10.7°C 49.0°F9.4°C 92% 2.3 mph SSE3.7 kmh SSE 4.6 mph7.4 kmh 30.19 in1022.4 mb - 0.00 in0.0 mm 0.00 in0.0 mm
08:30 AM 51.3°F10.7°C 49.0°F9.4°C 92% Calm Calm 1.2 mph1.9 kmh 30.19 in1022.4 mb - 0.00 in0.0 mm 0.00 in0.0 mm
08:40 AM 51.3°F10.7°C 49.1°F9.5°C 92% 1.2 mph SE1.9 kmh SE 6.9 mph11.1 kmh 30.19 in1022.4 mb - 0.00 in0.0 mm 0.00 in0.0 mm
08:50 AM 51.3°F10.7°C 49.1°F9.5°C 92% 3.5 mph SSE5.6 kmh SSE 3.5 mph5.6 kmh 30.19 in1022.4 mb - 0.00 in0.0 mm 0.00 in0.0 mm
09:00 AM 51.4°F10.8°C 49.4°F9.7°C 93% 1.2 mph SE1.9 kmh SE 3.5 mph5.6 kmh 30.18 in1022.0 mb - 0.00 in0.0 mm 0.00 in0.0 mm
09:10 AM 51.4°F10.8°C 49.4°F9.7°C 93% 4.6 mph SSE7.4 kmh SSE 8.1 mph13.0 kmh 30.18 in1022.0 mb - 0.00 in0.0 mm 0.00 in0.0 mm
09:20 AM 51.4°F10.8°C 49.5°F9.7°C 93% 2.3 mph S3.7 kmh S 5.8 mph9.3 kmh 30.18 in1022.0 mb - 0.00 in0.0 mm 0.00 in0.0 mm
09:30 AM 51.5°F10.8°C 49.5°F9.7°C 93% 1.2 mph S1.9 kmh S 5.8 mph9.3 kmh 30.18 in1022.0 mb - 0.00 in0.0 mm 0.00 in0.0 mm
09:40 AM 51.5°F10.8°C 49.3°F9.6°C 92% 2.3 mph S3.7 kmh S 2.3 mph3.7 kmh 30.18 in1022.0 mb - 0.00 in0.0 mm 0.00 in0.0 mm
09:50 AM 51.5°F10.8°C 49.6°F9.8°C 93% 1.2 mph SE1.9 kmh SE 2.3 mph3.7 kmh 30.18 in1022.0 mb - 0.00 in0.0 mm 0.00 in0.0 mm
10:00 AM 51.6°F10.9°C 49.4°F9.7°C 92% 3.5 mph S5.6 kmh S 4.6 mph7.4 kmh 30.17 in1021.7 mb - 0.00 in0.0 mm 0.00 in0.0 mm
10:10 AM 51.7°F10.9°C 49.7°F9.8°C 93% 2.3 mph SE3.7 kmh SE 4.6 mph7.4 kmh 30.17 in1021.7 mb - 0.00 in0.0 mm 0.00 in0.0 mm
10:20 AM 51.7°F10.9°C 49.5°F9.7°C 92% 3.5 mph SE5.6 kmh SE 10.4 mph16.7 kmh 30.17 in1021.7 mb - 0.00 in0.0 mm 0.00 in0.0 mm
10:30 AM 51.8°F11.0°C 49.5°F9.7°C 92% 1.2 mph S1.9 kmh S 4.6 mph7.4 kmh 30.17 in1021.7 mb - 0.00 in0.0 mm 0.00 in0.0 mm
10:40 AM 51.9°F11.1°C 49.4°F9.7°C 91% 5.8 mph SE9.3 kmh SE 8.1 mph13.0 kmh 30.17 in1021.7 mb - 0.00 in0.0 mm 0.00 in0.0 mm
10:50 AM 52.1°F11.2°C 49.6°F9.8°C 91% 1.2 mph SE1.9 kmh SE 2.3 mph3.7 kmh 30.16 in1021.3 mb - 0.00 in0.0 mm 0.00 in0.0 mm
11:00 AM 52.2°F11.2°C 49.7°F9.8°C 91% 2.3 mph S3.7 kmh S 3.5 mph5.6 kmh 30.16 in1021.3 mb - 0.00 in0.0 mm 0.00 in0.0 mm
11:10 AM 52.4°F11.3°C 49.8°F9.9°C 91% 2.3 mph SE3.7 kmh SE 4.6 mph7.4 kmh 30.15 in1021.0 mb - 0.00 in0.0 mm 0.00 in0.0 mm
11:20 AM 52.6°F11.4°C 50.0°F10.0°C 91% 1.2 mph SE1.9 kmh SE 6.9 mph11.1 kmh 30.15 in1021.0 mb - 0.00 in0.0 mm 0.00 in0.0 mm
11:30 AM 52.8°F11.6°C 50.2°F10.1°C 91% 4.6 mph SE7.4 kmh SE 10.4 mph16.7 kmh 30.15 in1021.0 mb - 0.00 in0.0 mm 0.00 in0.0 mm
11:40 AM 52.9°F11.6°C 50.0°F10.0°C 90% 3.5 mph SSW5.6 kmh SSW 6.9 mph11.1 kmh 30.15 in1021.0 mb - 0.00 in0.0 mm 0.00 in0.0 mm
11:50 AM 52.9°F11.6°C 50.0°F10.0°C 90% 3.5 mph SSE5.6 kmh SSE 8.1 mph13.0 kmh 30.15 in1021.0 mb - 0.00 in0.0 mm 0.00 in0.0 mm
12:00 PM 52.8°F11.6°C 50.2°F10.1°C 91% 1.2 mph S1.9 kmh S 9.2 mph14.8 kmh 30.15 in1021.0 mb - 0.00 in0.0 mm 0.00 in0.0 mm
12:10 PM 52.7°F11.5°C 50.1°F10.1°C 91% 4.6 mph S7.4 kmh S 8.1 mph13.0 kmh 30.14 in1020.7 mb - 0.00 in0.0 mm 0.00 in0.0 mm
12:20 PM 52.7°F11.5°C 50.4°F10.2°C 92% 4.6 mph SSE7.4 kmh SSE 9.2 mph14.8 kmh 30.14 in1020.7 mb - 0.00 in0.0 mm 0.00 in0.0 mm
12:30 PM 52.8°F11.6°C 50.5°F10.3°C 92% 4.6 mph SSE7.4 kmh SSE 9.2 mph14.8 kmh 30.14 in1020.7 mb - 0.00 in0.0 mm 0.00 in0.0 mm
12:40 PM 52.8°F11.6°C 50.2°F10.1°C 91% 4.6 mph S7.4 kmh S 6.9 mph11.1 kmh 30.14 in1020.7 mb - 0.00 in0.0 mm 0.00 in0.0 mm
12:50 PM 53.2°F11.8°C 50.6°F10.3°C 91% 3.5 mph SSE5.6 kmh SSE 5.8 mph9.3 kmh 30.13 in1020.3 mb - 0.00 in0.0 mm 0.00 in0.0 mm
01:00 PM 53.3°F11.8°C 50.7°F10.4°C 91% Calm Calm 4.6 mph7.4 kmh 30.13 in1020.3 mb - 0.00 in0.0 mm 0.00 in0.0 mm
01:10 PM 53.3°F11.8°C 50.7°F10.4°C 91% 2.3 mph SSE3.7 kmh SSE 4.6 mph7.4 kmh 30.12 in1020.0 mb - 0.00 in0.0 mm 0.00 in0.0 mm
01:20 PM 53.2°F11.8°C 50.9°F10.5°C 92% 1.2 mph SE1.9 kmh SE 4.6 mph7.4 kmh 30.12 in1020.0 mb - 0.00 in0.0 mm 0.00 in0.0 mm
01:30 PM 53.1°F11.7°C 51.1°F10.6°C 93% 2.3 mph S3.7 kmh S 9.2 mph14.8 kmh 30.12 in1020.0 mb - 0.00 in0.0 mm 0.00 in0.0 mm
01:40 PM 53.1°F11.7°C 51.1°F10.6°C 93% 1.2 mph SE1.9 kmh SE 9.2 mph14.8 kmh 30.11 in1019.6 mb - 0.00 in0.0 mm 0.00 in0.0 mm
01:50 PM 53.1°F11.7°C 51.4°F10.8°C 94% 3.5 mph SSE5.6 kmh SSE 11.5 mph18.5 kmh 30.11 in1019.6 mb - 0.00 in0.0 mm 0.00 in0.0 mm
02:00 PM 53.1°F11.7°C 51.4°F10.8°C 94% 4.6 mph SSE7.4 kmh SSE 9.2 mph14.8 kmh 30.11 in1019.6 mb - 0.00 in0.0 mm 0.00 in0.0 mm
02:10 PM 53.2°F11.8°C 51.5°F10.8°C 94% 3.5 mph SSW5.6 kmh SSW 5.8 mph9.3 kmh 30.10 in1019.3 mb - 0.00 in0.0 mm 0.00 in0.0 mm
02:20 PM 54.0°F12.2°C 52.9°F11.6°C 96% Calm Calm -- 30.09 in1019.0 mb - 0.00 in0.0 mm 0.00 in0.0 mm
02:30 PM 54.3°F12.4°C 52.6°F11.4°C 94% 1.2 mph SE1.9 kmh SE 4.6 mph7.4 kmh 30.09 in1019.0 mb - 0.00 in0.0 mm 0.00 in0.0 mm
02:40 PM 54.2°F12.3°C 51.9°F11.1°C 92% 3.5 mph SE5.6 kmh SE 10.4 mph16.7 kmh 30.08 in1018.6 mb - 0.00 in0.0 mm 0.00 in0.0 mm
02:50 PM 53.9°F12.2°C 51.9°F11.1°C 93% 3.5 mph S5.6 kmh S 6.9 mph11.1 kmh 30.08 in1018.6 mb - 0.00 in0.0 mm 0.00 in0.0 mm
03:00 PM 54.1°F12.3°C 51.8°F11.0°C 92% 4.6 mph SSE7.4 kmh SSE 10.4 mph16.7 kmh 30.07 in1018.3 mb - 0.00 in0.0 mm 0.00 in0.0 mm
03:10 PM 54.4°F12.4°C 52.1°F11.2°C 92% 4.6 mph S7.4 kmh S 10.4 mph16.7 kmh 30.07 in1018.3 mb - 0.00 in0.0 mm 0.00 in0.0 mm
03:20 PM 54.6°F12.6°C 52.0°F11.1°C 91% 2.3 mph SE3.7 kmh SE 3.5 mph5.6 kmh 30.06 in1017.9 mb - 0.00 in0.0 mm 0.00 in0.0 mm
03:30 PM 54.5°F12.5°C 51.9°F11.1°C 91% 3.5 mph SSE5.6 kmh SSE 3.5 mph5.6 kmh 30.06 in1017.9 mb - 0.00 in0.0 mm 0.00 in0.0 mm
03:40 PM 54.2°F12.3°C 52.0°F11.1°C 92% 4.6 mph S7.4 kmh S 11.5 mph18.5 kmh 30.06 in1017.9 mb - 0.00 in0.0 mm 0.00 in0.0 mm
03:50 PM 54.3°F12.4°C 52.0°F11.1°C 92% 4.6 mph S7.4 kmh S 6.9 mph11.1 kmh 30.05 in1017.6 mb - 0.00 in0.0 mm 0.00 in0.0 mm
04:00 PM 54.5°F12.5°C 52.2°F11.2°C 92% 3.5 mph SE5.6 kmh SE 9.2 mph14.8 kmh 30.06 in1017.9 mb - 0.00 in0.0 mm 0.00 in0.0 mm
04:10 PM 54.5°F12.5°C 52.2°F11.2°C 92% 5.8 mph SSE9.3 kmh SSE 6.9 mph11.1 kmh 30.05 in1017.6 mb - 0.00 in0.0 mm 0.00 in0.0 mm
04:20 PM 54.6°F12.6°C 52.3°F11.3°C 92% 2.3 mph SSE3.7 kmh SSE 5.8 mph9.3 kmh 30.05 in1017.6 mb - 0.00 in0.0 mm 0.00 in0.0 mm
04:30 PM 54.7°F12.6°C 52.4°F11.3°C 92% 2.3 mph SSE3.7 kmh SSE 4.6 mph7.4 kmh 30.05 in1017.6 mb - 0.00 in0.0 mm 0.00 in0.0 mm
04:40 PM 54.9°F12.7°C 52.3°F11.3°C 91% 3.5 mph SSE5.6 kmh SSE 4.6 mph7.4 kmh 30.04 in1017.3 mb - 0.00 in0.0 mm 0.00 in0.0 mm
04:50 PM 55.0°F12.8°C 52.4°F11.3°C 91% 4.6 mph S7.4 kmh S 8.1 mph13.0 kmh 30.05 in1017.6 mb - 0.00 in0.0 mm 0.00 in0.0 mm
05:00 PM 54.8°F12.7°C 52.8°F11.6°C 93% 1.2 mph SW1.9 kmh SW 2.3 mph3.7 kmh 30.04 in1017.3 mb - 0.00 in0.0 mm 0.00 in0.0 mm
05:10 PM 54.6°F12.6°C 52.6°F11.4°C 93% 4.6 mph SSE7.4 kmh SSE 11.5 mph18.5 kmh 30.04 in1017.3 mb - 0.00 in0.0 mm 0.00 in0.0 mm
05:20 PM 54.2°F12.3°C 52.2°F11.2°C 93% 2.3 mph S3.7 kmh S 6.9 mph11.1 kmh 30.04 in1017.3 mb - 0.01 in0.3 mm 0.01 in0.3 mm
05:30 PM 53.9°F12.2°C 51.9°F11.1°C 93% 2.3 mph SSE3.7 kmh SSE 6.9 mph11.1 kmh 30.04 in1017.3 mb - 0.00 in0.0 mm 0.01 in0.3 mm
05:40 PM 53.8°F12.1°C 52.1°F11.2°C 94% 1.2 mph S1.9 kmh S 3.5 mph5.6 kmh 30.04 in1017.3 mb - 0.00 in0.0 mm 0.01 in0.3 mm
05:50 PM 53.7°F12.1°C 52.0°F11.1°C 94% 1.2 mph S1.9 kmh S 3.5 mph5.6 kmh 30.03 in1016.9 mb - 0.00 in0.0 mm 0.01 in0.3 mm
06:00 PM 53.6°F12.0°C 52.2°F11.2°C 95% Calm Calm -- 30.03 in1016.9 mb - 0.00 in0.0 mm 0.01 in0.3 mm
06:10 PM 53.5°F11.9°C 52.1°F11.2°C 95% 1.2 mph SE1.9 kmh SE 5.8 mph9.3 kmh 30.03 in1016.9 mb - 0.00 in0.0 mm 0.01 in0.3 mm
06:20 PM 53.4°F11.9°C 52.0°F11.1°C 95% 1.2 mph S1.9 kmh S 2.3 mph3.7 kmh 30.03 in1016.9 mb - 0.00 in0.0 mm 0.01 in0.3 mm
06:30 PM 53.3°F11.8°C 51.9°F11.1°C 95% 1.2 mph SE1.9 kmh SE 6.9 mph11.1 kmh 30.03 in1016.9 mb - 0.00 in0.0 mm 0.01 in0.3 mm
06:40 PM 53.2°F11.8°C 51.8°F11.0°C 95% 1.2 mph S1.9 kmh S 3.5 mph5.6 kmh 30.03 in1016.9 mb - 0.00 in0.0 mm 0.01 in0.3 mm
06:50 PM 53.1°F11.7°C 51.7°F10.9°C 95% Calm Calm -- 30.03 in1016.9 mb - 0.00 in0.0 mm 0.01 in0.3 mm
07:00 PM 53.0°F11.7°C 51.9°F11.1°C 96% 1.2 mph SE1.9 kmh SE 4.6 mph7.4 kmh 30.03 in1016.9 mb - 0.00 in0.0 mm 0.01 in0.3 mm
07:10 PM 53.0°F11.7°C 51.9°F11.1°C 96% 4.6 mph SE7.4 kmh SE 10.4 mph16.7 kmh 30.03 in1016.9 mb - 0.00 in0.0 mm 0.01 in0.3 mm
07:20 PM 52.9°F11.6°C 51.8°F11.0°C 96% Calm Calm 1.2 mph1.9 kmh 30.03 in1016.9 mb - 0.00 in0.0 mm 0.01 in0.3 mm
07:30 PM 52.9°F11.6°C 51.8°F11.0°C 96% Calm Calm -- 30.03 in1016.9 mb - 0.00 in0.0 mm 0.01 in0.3 mm
07:40 PM 52.9°F11.6°C 51.8°F11.0°C 96% 2.3 mph SSE3.7 kmh SSE 3.5 mph5.6 kmh 30.03 in1016.9 mb - 0.00 in0.0 mm 0.01 in0.3 mm
07:50 PM 52.9°F11.6°C 51.8°F11.0°C 96% 1.2 mph SE1.9 kmh SE 8.1 mph13.0 kmh 30.02 in1016.6 mb - 0.00 in0.0 mm 0.01 in0.3 mm
08:00 PM 52.8°F11.6°C 51.7°F10.9°C 96% 2.3 mph SE3.7 kmh SE 3.5 mph5.6 kmh 30.02 in1016.6 mb - 0.00 in0.0 mm 0.01 in0.3 mm
08:10 PM 52.9°F11.6°C 52.0°F11.1°C 97% 1.2 mph S1.9 kmh S 3.5 mph5.6 kmh 30.02 in1016.6 mb - 0.00 in0.0 mm 0.01 in0.3 mm
08:20 PM 52.9°F11.6°C 52.1°F11.2°C 97% Calm Calm 1.2 mph1.9 kmh 30.01 in1016.3 mb - 0.00 in0.0 mm 0.01 in0.3 mm
08:30 PM 52.8°F11.6°C 52.0°F11.1°C 97% Calm Calm 1.2 mph1.9 kmh 30.00 in1015.9 mb - 0.00 in0.0 mm 0.01 in0.3 mm
08:40 PM 52.5°F11.4°C 51.7°F10.9°C 97% Calm Calm 3.5 mph5.6 kmh 30.01 in1016.3 mb - 0.00 in0.0 mm 0.01 in0.3 mm
08:50 PM 52.3°F11.3°C 51.2°F10.7°C 96% Calm Calm 3.5 mph5.6 kmh 30.00 in1015.9 mb - 0.00 in0.0 mm 0.01 in0.3 mm
09:00 PM 52.1°F11.2°C 51.0°F10.6°C 96% 1.2 mph SSE1.9 kmh SSE 2.3 mph3.7 kmh 30.01 in1016.3 mb - 0.00 in0.0 mm 0.01 in0.3 mm
09:10 PM 52.1°F11.2°C 51.0°F10.6°C 96% Calm Calm 4.6 mph7.4 kmh 30.01 in1016.3 mb - 0.00 in0.0 mm 0.01 in0.3 mm
09:20 PM 52.1°F11.2°C 51.3°F10.7°C 97% 2.3 mph S3.7 kmh S 1.2 mph1.9 kmh 30.01 in1016.3 mb - 0.00 in0.0 mm 0.01 in0.3 mm
09:30 PM 52.2°F11.2°C 51.4°F10.8°C 97% 1.2 mph SE1.9 kmh SE 9.2 mph14.8 kmh 30.02 in1016.6 mb - 0.00 in0.0 mm 0.01 in0.3 mm
09:40 PM 52.4°F11.3°C 51.6°F10.9°C 97% 1.2 mph S1.9 kmh S 6.9 mph11.1 kmh 30.02 in1016.6 mb - 0.00 in0.0 mm 0.01 in0.3 mm
09:50 PM 52.5°F11.4°C 51.7°F10.9°C 97% Calm Calm 3.5 mph5.6 kmh 30.02 in1016.6 mb - 0.00 in0.0 mm 0.01 in0.3 mm
10:00 PM 52.6°F11.4°C 51.8°F11.0°C 97% 1.2 mph S1.9 kmh S 2.3 mph3.7 kmh 30.02 in1016.6 mb - 0.00 in0.0 mm 0.01 in0.3 mm
10:10 PM 52.7°F11.5°C 51.9°F11.1°C 97% 2.3 mph SSE3.7 kmh SSE 10.4 mph16.7 kmh 30.02 in1016.6 mb - 0.00 in0.0 mm 0.01 in0.3 mm
10:20 PM 52.7°F11.5°C 51.9°F11.1°C 97% 1.2 mph S1.9 kmh S 8.1 mph13.0 kmh 30.02 in1016.6 mb - 0.00 in0.0 mm 0.01 in0.3 mm
10:30 PM 52.8°F11.6°C 52.0°F11.1°C 97% 1.2 mph S1.9 kmh S 5.8 mph9.3 kmh 30.03 in1016.9 mb - 0.00 in0.0 mm 0.01 in0.3 mm
10:40 PM 52.8°F11.6°C 52.0°F11.1°C 97% 1.2 mph S1.9 kmh S 2.3 mph3.7 kmh 30.03 in1016.9 mb - 0.00 in0.0 mm 0.01 in0.3 mm
10:50 PM 52.9°F11.6°C 52.1°F11.2°C 97% Calm Calm -- 30.03 in1016.9 mb - 0.00 in0.0 mm 0.01 in0.3 mm
11:00 PM 52.9°F11.6°C 52.1°F11.2°C 97% 2.3 mph S3.7 kmh S 8.1 mph13.0 kmh 30.03 in1016.9 mb - 0.00 in0.0 mm 0.01 in0.3 mm
11:10 PM 52.9°F11.6°C 51.8°F11.0°C 96% 1.2 mph SSE1.9 kmh SSE 9.2 mph14.8 kmh 30.03 in1016.9 mb - 0.00 in0.0 mm 0.01 in0.3 mm
11:20 PM 52.9°F11.6°C 51.8°F11.0°C 96% 2.3 mph S3.7 kmh S 10.4 mph16.7 kmh 30.03 in1016.9 mb - 0.00 in0.0 mm 0.01 in0.3 mm
11:30 PM 52.9°F11.6°C 51.8°F11.0°C 96% 1.2 mph SSE1.9 kmh SSE 5.8 mph9.3 kmh 30.03 in1016.9 mb - 0.00 in0.0 mm 0.01 in0.3 mm
11:40 PM 52.9°F11.6°C 51.8°F11.0°C 96% 2.3 mph S3.7 kmh S 4.6 mph7.4 kmh 30.03 in1016.9 mb - 0.00 in0.0 mm 0.01 in0.3 mm
11:50 PM 52.9°F11.6°C 51.8°F11.0°C 96% 2.3 mph S3.7 kmh S 2.3 mph3.7 kmh 30.02 in1016.6 mb - 0.00 in0.0 mm 0.01 in0.3 mm